Main page
METAR-TAF:

METAR-TAF

Airports :

Oban, Scotland

Oban Airport

latitude: 56-27-49N, longitude: 5-24-00W, elevation: 7 m

Current weather observation

The report was made 10 hours and 52 minutes ago, at 15:50 UTC
Wind 17 kt from the North/Northeast
Temperature 21°C
Humidity 60%
Pressure 1014 hPa
Few clouds at a height of 4000 ft
Scattered clouds at a height of 4900 ft

METAR: EGEO 231550Z 02017KT 99999 FEW040 SCT049 21/13 Q1014

Time: 03:42 (02:42 UTC)

Forecast

The report was made 11 hours and 45 minutes ago, at 14:57 UTC
Forecast valid from 23 at 15 UTC to 23 at 17 UTC
Wind 12 kt from the North
Visibility 10 km or more
Few clouds at a height of 2500 ft

TAF: EGEO 231457Z 2315/2317 01012KT 9999 FEW025

Weather observations and forecasts of more than 4000 airports (METAR and TAF reports).

The available stations are represented by yellow and red dots on the map.

Hover mouse over dot to see the name of the station.

Then click to see weather observations and forecasts.

To change the map : click on the green buttons with a black cross to zoom in, on the green button with a dash to zoom out, or on the green arrows for adjacent maps.


METAR-TAF: